Time;durP1;ratioP1;P1;durP2;ratioP2;P2;SDS_P1;SDS_P2;PMS_P1;PMS_P2;Temp;Humidity;BMP_temperature;BMP_pressure;BME280_temperature;BME280_humidity;BME280_pressure;Samples;Min_cycle;Max_cycle;Signal;HPM_P1;HPM_P2
2023/03/05 00:00:04;;;;;;;43.05;21.85;;;;;;;5.93;100.00;62603.31;5028342;28;20230;-83
2023/03/05 00:02:34;;;;;;;35.92;21.73;;;;;;;6.17;100.00;62630.03;5029504;28;20254;-83
2023/03/05 00:05:03;;;;;;;36.35;19.52;;;;;;;6.19;100.00;62632.09;5031373;28;20580;-83
2023/03/05 00:07:32;;;;;;;35.80;19.42;;;;;;;6.30;100.00;62643.97;5028246;28;20242;-81
2023/03/05 00:10:02;;;;;;;35.25;20.45;;;;;;;6.04;100.00;62616.66;5012110;28;21287;-84
2023/03/05 00:12:32;;;;;;;41.05;20.88;;;;;;;5.70;100.00;62582.63;5010253;28;20231;-84
2023/03/05 00:14:59;;;;;;;32.75;20.38;;;;;;;5.81;100.00;62595.97;5018645;28;20207;-83
2023/03/05 00:17:26;;;;;;;40.13;20.33;;;;;;;6.03;100.00;62616.13;5024603;28;20222;-83
2023/03/05 00:19:55;;;;;;;39.67;20.30;;;;;;;6.05;100.00;62618.19;5015715;28;20276;-82
2023/03/05 00:22:22;;;;;;;35.22;20.73;;;;;;;6.03;100.00;62616.13;5015099;28;20219;-83
2023/03/05 00:24:51;;;;;;;34.28;18.80;;;;;;;6.00;100.00;62613.03;5028638;28;20203;-82
2023/03/05 00:27:18;;;;;;;38.95;19.88;;;;;;;6.14;100.00;62635.06;5017187;28;20215;-82
2023/03/05 00:29:45;;;;;;;36.35;19.75;;;;;;;5.99;100.00;62617.06;5032813;28;20202;-82
2023/03/05 00:32:12;;;;;;;32.60;19.90;;;;;;;6.14;100.00;62630.00;5032716;28;20282;-84
2023/03/05 00:34:39;;;;;;;36.22;20.30;;;;;;;6.20;100.00;62635.66;5032081;28;20259;-81
2023/03/05 00:37:07;;;;;;;40.67;21.38;;;;;;;6.04;100.00;62616.66;5029686;28;20226;-81
2023/03/05 00:39:34;;;;;;;31.77;20.10;;;;;;;6.17;100.00;62632.56;5032566;28;20198;-83
2023/03/05 00:42:00;;;;;;;36.25;19.73;;;;;;;6.19;100.00;62627.06;5033292;28;20469;-82
2023/03/05 00:44:27;;;;;;;40.70;21.00;;;;;;;6.24;100.00;62642.31;5013120;28;20226;-83
2023/03/05 00:46:54;;;;;;;37.63;20.63;;;;;;;6.28;100.00;62644.41;5012209;28;20354;-83
2023/03/05 00:49:21;;;;;;;40.83;21.67;;;;;;;6.16;100.00;62632.06;5011991;28;20219;-81
2023/03/05 00:51:48;;;;;;;39.63;21.45;;;;;;;6.00;100.00;62612.53;5027765;28;20221;-81
2023/03/05 00:54:16;;;;;;;38.55;20.77;;;;;;;6.14;100.00;62632.00;5031360;28;20217;-81
2023/03/05 00:56:43;;;;;;;38.95;20.23;;;;;;;5.97;100.00;62609.44;5034054;28;20254;-81
2023/03/05 00:59:10;;;;;;;35.25;20.40;;;;;;;6.01;100.00;62616.06;5031073;28;20274;-81
2023/03/05 01:01:37;;;;;;;36.00;18.77;;;;;;;6.09;100.00;62624.84;5030081;28;20242;-80
2023/03/05 01:04:04;;;;;;;31.45;18.58;;;;;;;6.10;100.00;62623.34;5029862;28;20208;-81
2023/03/05 01:06:31;;;;;;;31.92;19.65;;;;;;;6.01;100.00;62619.13;5030829;28;20228;-80
2023/03/05 01:08:59;;;;;;;38.60;19.92;;;;;;;6.17;100.00;62630.56;5030848;28;20254;-83
2023/03/05 01:11:27;;;;;;;33.95;18.63;;;;;;;6.22;100.00;62638.25;5030634;28;20250;-81
2023/03/05 01:13:54;;;;;;;32.67;17.60;;;;;;;6.22;100.00;62635.72;5031781;28;20230;-81
2023/03/05 01:16:21;;;;;;;32.05;18.80;;;;;;;6.25;100.00;62641.34;5032254;28;20282;-82
2023/03/05 01:18:48;;;;;;;29.35;18.77;;;;;;;6.20;100.00;62635.66;5028871;28;20514;-80
2023/03/05 01:21:15;;;;;;;42.55;20.05;;;;;;;6.33;100.00;62647.06;5029247;28;20531;-82
2023/03/05 01:23:41;;;;;;;29.85;17.90;;;;;;;6.32;100.00;62645.50;5030136;28;20198;-80
2023/03/05 01:26:08;;;;;;;28.48;17.08;;;;;;;6.35;100.00;62651.13;5029727;28;20223;-82
2023/03/05 01:28:37;;;;;;;31.23;17.27;;;;;;;6.37;100.00;62645.59;5025161;28;20202;-81
2023/03/05 01:31:08;;;;;;;28.73;16.30;;;;;;;6.30;100.00;62649.00;5028993;28;20507;-83
2023/03/05 01:33:35;;;;;;;29.02;17.42;;;;;;;6.33;100.00;62646.53;5031221;28;20191;-81
2023/03/05 01:36:02;;;;;;;29.80;16.67;;;;;;;6.27;100.00;62643.41;5029628;28;20226;-81
2023/03/05 01:38:29;;;;;;;31.55;16.73;;;;;;;6.23;100.00;62644.31;5027791;28;20534;-83
2023/03/05 01:40:56;;;;;;;25.88;17.20;;;;;;;6.15;100.00;62627.97;5032044;28;20238;-80
2023/03/05 01:43:26;;;;;;;25.08;14.60;;;;;;;6.24;100.00;62642.31;5031318;28;20266;-81
2023/03/05 01:46:23;;;;;;;24.63;14.05;;;;;;;6.06;100.00;62621.25;5028611;28;20246;-81
2023/03/05 01:48:54;;;;;;;27.20;15.85;;;;;;;6.08;100.00;62626.34;5018706;28;20267;-81
2023/03/05 01:51:25;;;;;;;24.25;15.73;;;;;;;6.09;100.00;62626.84;5029853;28;20305;-83
2023/03/05 01:53:53;;;;;;;29.40;16.33;;;;;;;6.11;100.00;62624.38;5031010;28;20206;-82
2023/03/05 01:56:21;;;;;;;26.70;15.70;;;;;;;6.05;100.00;62623.25;5025290;28;20485;-82
2023/03/05 01:58:49;;;;;;;25.27;14.32;;;;;;;6.02;100.00;62617.63;5029695;28;20203;-81
2023/03/05 02:01:16;;;;;;;27.17;16.00;;;;;;;5.92;100.00;62607.31;5030227;28;20561;-80
2023/03/05 02:03:46;;;;;;;24.20;13.98;;;;;;;5.90;100.00;62607.28;5028301;28;20225;-82
2023/03/05 02:06:13;;;;;;;32.92;14.93;;;;;;;5.97;100.00;62617.53;5010158;28;20242;-84
2023/03/05 02:08:40;;;;;;;27.33;15.13;;;;;;;5.93;100.00;62610.88;5031356;28;20214;-82
2023/03/05 02:11:09;;;;;;;22.20;13.50;;;;;;;6.06;100.00;62621.25;5032491;28;20206;-81
2023/03/05 02:13:39;;;;;;;20.50;12.90;;;;;;;6.04;100.00;62622.22;5030561;28;20199;-81
2023/03/05 02:16:07;;;;;;;19.40;13.38;;;;;;;6.11;100.00;62626.91;5023134;28;20273;-81
2023/03/05 02:18:34;;;;;;;23.98;13.98;;;;;;;5.94;100.00;62611.91;5011815;28;20202;-80
2023/03/05 02:21:05;;;;;;;23.10;13.35;;;;;;;6.11;100.00;62624.38;5011196;28;20235;-81
2023/03/05 02:23:35;;;;;;;27.05;14.15;;;;;;;6.05;100.00;62622.72;5028539;28;20218;-81
2023/03/05 02:26:03;;;;;;;29.08;14.43;;;;;;;6.08;100.00;62621.28;5019212;28;20206;-79
2023/03/05 02:28:36;;;;;;;25.55;13.70;;;;;;;6.13;100.00;62628.97;5010832;28;20219;-81
2023/03/05 02:31:09;;;;;;;27.90;15.13;;;;;;;6.15;100.00;62625.97;5016599;28;20210;-79
2023/03/05 02:33:36;;;;;;;25.33;15.40;;;;;;;6.18;100.00;62636.13;5029603;28;20206;-80
2023/03/05 02:36:06;;;;;;;32.88;18.77;;;;;;;6.21;100.00;62637.22;5030559;28;20199;-80
2023/03/05 02:38:33;;;;;;;23.20;13.48;;;;;;;6.04;100.00;62616.66;5026011;28;20230;-80
2023/03/05 02:41:00;;;;;;;26.58;15.13;;;;;;;5.93;100.00;62605.31;5030479;28;20241;-81
2023/03/05 02:43:27;;;;;;;22.88;14.20;;;;;;;5.94;100.00;62609.38;5028459;28;20522;-80
2023/03/05 02:45:54;;;;;;;23.83;14.70;;;;;;;5.98;100.00;62610.97;5029456;28;20226;-80
2023/03/05 02:48:21;;;;;;;27.25;14.65;;;;;;;6.03;100.00;62615.59;5030145;28;20203;-82
2023/03/05 02:50:49;;;;;;;25.67;14.23;;;;;;;6.06;100.00;62621.75;5030128;28;20198;-81
2023/03/05 02:53:17;;;;;;;22.65;13.25;;;;;;;5.89;100.00;62604.22;5029762;28;20527;-81
2023/03/05 02:55:46;;;;;;;23.52;13.32;;;;;;;6.04;100.00;62609.06;5029016;28;20205;-81
2023/03/05 02:58:13;;;;;;;20.60;12.25;;;;;;;6.11;100.00;62623.88;5029195;28;20202;-82
2023/03/05 03:00:40;;;;;;;22.73;13.25;;;;;;;6.09;100.00;62621.81;5027653;28;20226;-82
2023/03/05 03:03:07;;;;;;;19.73;13.20;;;;;;;6.08;100.00;62618.22;5029239;28;20289;-79
2023/03/05 03:05:35;;;;;;;20.55;13.13;;;;;;;6.09;100.00;62624.84;5025273;28;20231;-82
2023/03/05 03:08:03;;;;;;;22.58;12.70;;;;;;;6.15;100.00;62630.50;5028826;28;20223;-80
2023/03/05 03:10:31;;;;;;;22.20;12.45;;;;;;;6.17;100.00;62627.50;5027927;28;20426;-82
2023/03/05 03:12:58;;;;;;;21.15;12.40;;;;;;;6.07;100.00;62619.75;5029295;28;20245;-80
2023/03/05 03:15:25;;;;;;;22.17;12.52;;;;;;;6.03;100.00;62618.66;5031013;28;20199;-82
2023/03/05 03:17:52;;;;;;;26.55;12.25;;;;;;;6.06;100.00;62621.25;5028028;28;20290;-82
2023/03/05 03:20:20;;;;;;;20.17;12.60;;;;;;;5.93;100.00;62607.84;5026200;28;20246;-80
2023/03/05 03:22:47;;;;;;;19.40;12.05;;;;;;;5.95;100.00;62612.94;5028785;28;20285;-82
2023/03/05 03:25:16;;;;;;;23.50;13.77;;;;;;;5.89;100.00;62599.19;5028309;28;20203;-79
2023/03/05 03:27:44;;;;;;;20.88;12.43;;;;;;;5.69;100.00;62583.59;5027639;28;20222;-79
2023/03/05 03:30:12;;;;;;;22.92;12.90;;;;;;;5.53;100.00;62567.13;5029098;28;20225;-79
2023/03/05 03:32:39;;;;;;;26.48;14.60;;;;;;;5.54;100.00;62568.16;5028789;28;20241;-79
2023/03/05 03:35:07;;;;;;;23.17;13.07;;;;;;;5.46;100.00;62557.91;5026275;28;20206;-79
2023/03/05 03:37:34;;;;;;;23.70;13.15;;;;;;;5.37;100.00;62548.63;5026758;28;20479;-82
2023/03/05 03:40:01;;;;;;;20.88;12.75;;;;;;;5.35;100.00;62548.59;5023041;28;20207;-81
2023/03/05 03:42:28;;;;;;;22.35;12.32;;;;;;;5.31;100.00;62539.41;5028825;28;20234;-79
2023/03/05 03:44:56;;;;;;;21.92;13.02;;;;;;;5.24;100.00;62537.75;5027716;28;20250;-77
2023/03/05 03:47:23;;;;;;;25.83;13.75;;;;;;;5.16;100.00;62527.00;5023961;28;20229;-76
2023/03/05 03:49:53;;;;;;;20.80;13.05;;;;;;;5.14;100.00;62526.94;5023092;28;20538;-80
2023/03/05 03:52:21;;;;;;;28.33;13.95;;;;;;;5.15;100.00;62527.97;5026200;28;20264;-80
2023/03/05 03:54:48;;;;;;;21.58;12.75;;;;;;;5.10;100.00;62525.34;5028982;28;20198;-80
2023/03/05 03:57:15;;;;;;;22.65;11.88;;;;;;;5.07;100.00;62522.78;5030240;28;20256;-78
2023/03/05 03:59:44;;;;;;;21.95;12.00;;;;;;;5.02;100.00;62512.56;5018784;28;20270;-78
2023/03/05 04:02:13;;;;;;;21.77;12.38;;;;;;;5.11;100.00;62521.84;5029303;28;20317;-80
2023/03/05 04:04:40;;;;;;;23.70;12.45;;;;;;;5.16;100.00;62534.06;5023905;28;20245;-78
2023/03/05 04:07:07;;;;;;;24.38;12.57;;;;;;;5.10;100.00;62520.81;5028921;28;20219;-80
2023/03/05 04:09:34;;;;;;;24.70;12.90;;;;;;;5.02;100.00;62512.06;5029879;28;20194;-80
2023/03/05 04:12:16;;;;;;;22.55;13.95;;;;;;;5.09;100.00;62517.25;5029582;28;20242;-78
2023/03/05 04:14:47;;;;;;;26.85;13.82;;;;;;;4.99;100.00;62514.53;5030435;28;20224;-79
2023/03/05 04:17:16;;;;;;;25.63;13.90;;;;;;;4.94;100.00;62506.88;5029792;28;20277;-77
2023/03/05 04:19:43;;;;;;;23.17;13.27;;;;;;;4.93;100.00;62505.84;5030719;28;20199;-78
2023/03/05 04:22:11;;;;;;;30.92;14.20;;;;;;;4.97;100.00;62509.44;5028096;28;20277;-79
2023/03/05 04:24:40;;;;;;;23.17;12.40;;;;;;;4.97;100.00;62506.91;5014670;28;20270;-81
2023/03/05 04:27:07;;;;;;;28.20;13.65;;;;;;;4.93;100.00;62510.38;5028110;28;20226;-81
2023/03/05 04:29:34;;;;;;;27.27;14.95;;;;;;;4.93;100.00;62505.31;5030178;28;20217;-79
2023/03/05 04:32:02;;;;;;;26.33;13.10;;;;;;;4.96;100.00;62505.88;5027409;28;20281;-78
2023/03/05 04:34:31;;;;;;;27.67;14.88;;;;;;;4.84;100.00;62494.03;5027245;28;20203;-80
2023/03/05 04:36:58;;;;;;;22.88;14.10;;;;;;;4.95;100.00;62510.44;5029037;28;20233;-78
2023/03/05 04:39:25;;;;;;;26.10;14.95;;;;;;;4.86;100.00;62498.63;5030529;28;20199;-79
2023/03/05 04:41:52;;;;;;;25.58;14.52;;;;;;;4.83;100.00;62498.06;5021025;28;20231;-80
2023/03/05 04:44:20;;;;;;;35.00;16.65;;;;;;;4.82;100.00;62496.50;5011048;28;20207;-81
2023/03/05 04:46:47;;;;;;;25.45;14.05;;;;;;;4.86;100.00;62490.53;5024268;28;20241;-82
2023/03/05 04:49:14;;;;;;;24.13;13.73;;;;;;;4.66;100.00;62478.56;5029109;28;20194;-81
2023/03/05 04:51:43;;;;;;;24.98;13.95;;;;;;;4.76;100.00;62485.31;5013078;28;20273;-81
2023/03/05 04:54:09;;;;;;;30.70;15.52;;;;;;;4.79;100.00;62488.91;5011419;28;20234;-79
2023/03/05 04:56:36;;;;;;;25.67;13.45;;;;;;;4.82;100.00;62499.03;5027292;28;20234;-80
2023/03/05 04:59:03;;;;;;;31.45;13.77;;;;;;;4.82;100.00;62491.97;5031347;28;20206;-79
2023/03/05 05:01:31;;;;;;;18.35;10.90;;;;;;;4.79;100.00;62485.84;5024015;28;20260;-78
2023/03/05 05:03:58;;;;;;;26.60;14.57;;;;;;;4.82;100.00;62494.50;5028745;28;20506;-80
2023/03/05 05:06:25;;;;;;;21.38;13.10;;;;;;;4.85;100.00;62500.13;5038140;28;20230;-79
2023/03/05 05:08:53;;;;;;;19.38;11.20;;;;;;;4.87;100.00;62494.09;5032752;28;20517;-78
2023/03/05 05:11:20;;;;;;;19.98;11.57;;;;;;;4.85;100.00;62500.13;5028359;28;20230;-78
2023/03/05 05:13:47;;;;;;;25.67;12.48;;;;;;;4.93;100.00;62505.31;5029833;28;20495;-78
2023/03/05 05:16:15;;;;;;;26.92;12.82;;;;;;;4.93;100.00;62505.31;5028895;28;20278;-78
2023/03/05 05:18:42;;;;;;;19.25;11.25;;;;;;;4.93;99.82;62507.84;5028772;28;20195;-77
2023/03/05 05:21:11;;;;;;;21.20;11.63;;;;;;;4.87;99.88;62497.13;5031592;28;20242;-78
2023/03/05 05:23:38;;;;;;;22.40;12.25;;;;;;;4.84;100.00;62496.06;5028357;28;20226;-79
2023/03/05 05:26:08;;;;;;;19.63;11.93;;;;;;;4.87;100.00;62497.13;5020481;28;20393;-80
2023/03/05 05:28:37;;;;;;;31.00;12.75;;;;;;;4.82;100.00;62488.94;5027993;28;20423;-76
2023/03/05 05:31:07;;;;;;;19.58;11.05;;;;;;;4.82;99.94;62494.50;5028556;28;20266;-79
2023/03/05 05:33:34;;;;;;;25.30;12.48;;;;;;;4.84;99.60;62491.00;5028038;28;20203;-79
2023/03/05 05:36:02;;;;;;;23.83;11.80;;;;;;;4.85;98.38;62497.59;5027685;28;20234;-81
2023/03/05 05:38:29;;;;;;;24.10;11.88;;;;;;;4.83;97.79;62493.03;5027292;28;20233;-78
2023/03/05 05:41:02;;;;;;;17.73;10.73;;;;;;;4.81;96.19;62490.97;5023292;28;20199;-79
2023/03/05 05:43:31;;;;;;;17.13;10.35;;;;;;;4.87;96.40;62497.13;5026041;28;20194;-77
2023/03/05 05:46:00;;;;;;;21.13;10.35;;;;;;;4.81;94.69;62495.50;5028234;28;20214;-81
2023/03/05 05:48:28;;;;;;;19.13;11.30;;;;;;;4.84;93.87;62494.03;5028811;28;20210;-78
2023/03/05 05:50:55;;;;;;;18.92;9.68;;;;;;;4.81;93.16;62490.44;5026954;28;20195;-81
2023/03/05 05:53:22;;;;;;;24.00;10.75;;;;;;;4.86;91.49;62495.59;5025765;28;20210;-78
2023/03/05 05:55:49;;;;;;;17.58;9.30;;;;;;;4.94;91.29;62506.34;5024831;28;20530;-75
2023/03/05 05:58:16;;;;;;;17.27;9.20;;;;;;;4.91;90.69;62500.72;5026453;28;20524;-79
2023/03/05 06:00:46;;;;;;;19.13;9.35;;;;;;;4.87;89.74;62497.13;5028194;28;20191;-79
2023/03/05 06:03:13;;;;;;;20.92;10.20;;;;;;;5.01;88.23;62516.59;5026582;28;20273;-80
2023/03/05 06:05:41;;;;;;;20.65;10.02;;;;;;;5.06;88.52;62521.75;5026266;28;20471;-78
2023/03/05 06:08:08;;;;;;;15.27;9.10;;;;;;;5.02;86.65;62517.13;5025046;28;20222;-77
2023/03/05 06:10:36;;;;;;;13.15;8.98;;;;;;;5.09;87.06;62522.31;5022836;28;20266;-80
2023/03/05 06:13:03;;;;;;;15.23;7.57;;;;;;;5.11;86.54;62526.88;5013373;28;20234;-78
2023/03/05 06:15:30;;;;;;;13.52;8.60;;;;;;;5.16;86.55;62531.53;5027424;28;20270;-78
2023/03/05 06:18:00;;;;;;;11.93;7.82;;;;;;;5.15;86.30;62525.44;5036449;28;20225;-78
2023/03/05 06:20:27;;;;;;;9.80;8.05;;;;;;;5.20;84.87;62533.13;5028217;28;20194;-81
2023/03/05 06:22:54;;;;;;;13.93;7.03;;;;;;;5.18;83.68;62528.53;5023455;28;20253;-78
2023/03/05 06:25:21;;;;;;;12.98;7.70;;;;;;;5.26;83.53;62537.31;5027026;28;20198;-79
2023/03/05 06:27:48;;;;;;;17.80;8.30;;;;;;;5.35;82.12;62544.03;5027269;28;20222;-79
2023/03/05 06:30:15;;;;;;;17.15;8.57;;;;;;;5.38;81.06;62552.19;5026389;28;20225;-79
2023/03/05 06:32:42;;;;;;;14.75;8.38;;;;;;;5.45;80.37;62556.84;5026662;28;20313;-78
2023/03/05 06:35:11;;;;;;;11.60;6.93;;;;;;;5.48;78.56;62567.53;5025223;28;20364;-76
2023/03/05 06:37:37;;;;;;;14.15;8.23;;;;;;;5.62;77.35;62578.91;5025605;28;20294;-80
2023/03/05 06:40:06;;;;;;;12.82;7.78;;;;;;;5.66;77.62;62580.53;5018258;28;20269;-79
2023/03/05 06:42:33;;;;;;;16.73;8.48;;;;;;;5.94;76.48;62611.41;5025461;28;20253;-79
2023/03/05 06:45:00;;;;;;;14.85;7.22;;;;;;;6.02;73.27;62615.09;5025380;28;20390;-78
2023/03/05 06:47:27;;;;;;;12.75;8.55;;;;;;;6.06;73.32;62624.28;5027699;28;20417;-79
2023/03/05 06:49:54;;;;;;;17.45;9.27;;;;;;;6.14;71.98;62624.94;5015395;28;20211;-78
2023/03/05 06:52:23;;;;;;;14.50;8.63;;;;;;;6.06;69.97;62624.28;5026077;28;20257;-76
2023/03/05 06:54:50;;;;;;;10.88;8.07;;;;;;;6.16;71.49;62629.03;5025407;28;20269;-78
2023/03/05 06:57:17;;;;;;;15.35;8.13;;;;;;;6.15;67.91;62627.97;5023105;28;20241;-75
2023/03/05 06:59:43;;;;;;;10.00;7.43;;;;;;;6.25;69.12;62641.34;5022573;28;20218;-77
2023/03/05 07:02:12;;;;;;;12.60;7.10;;;;;;;6.31;66.47;62647.00;5029104;28;20238;-79
2023/03/05 07:04:39;;;;;;;11.07;7.20;;;;;;;6.17;66.27;62630.56;5025456;28;20203;-77
2023/03/05 07:07:07;;;;;;;15.35;9.40;;;;;;;6.14;67.76;62624.44;5023163;28;20261;-77
2023/03/05 07:09:41;;;;;;;11.85;8.65;;;;;;;6.11;67.46;62626.41;5026204;28;20204;-78
2023/03/05 07:12:08;;;;;;;14.93;7.72;;;;;;;6.13;66.22;62625.91;5026016;28;20260;-79
2023/03/05 07:14:36;;;;;;;15.18;8.15;;;;;;;6.11;66.28;62626.41;5026762;28;20203;-79
2023/03/05 07:17:03;;;;;;;18.10;10.02;;;;;;;6.09;66.21;62624.84;5024817;28;20235;-77
2023/03/05 07:19:30;;;;;;;18.00;9.93;;;;;;;6.01;64.68;62611.53;5027439;28;20198;-78
2023/03/05 07:21:57;;;;;;;19.13;9.93;;;;;;;5.87;67.02;62599.13;5023060;28;20230;-79
2023/03/05 07:24:28;;;;;;;15.07;9.18;;;;;;;5.86;67.47;62601.13;5019811;28;20224;-77
2023/03/05 07:26:57;;;;;;;15.50;9.77;;;;;;;5.95;65.56;62609.91;5021914;28;20233;-76
2023/03/05 07:29:24;;;;;;;17.58;9.35;;;;;;;6.06;66.63;62621.75;5023860;28;20238;-77
2023/03/05 07:31:51;;;;;;;24.77;11.10;;;;;;;6.31;64.26;62649.53;5025917;28;20228;-78
2023/03/05 07:34:18;;;;;;;21.13;11.18;;;;;;;6.45;65.03;62661.97;5026591;28;20202;-78
2023/03/05 07:36:45;;;;;;;19.73;11.32;;;;;;;6.49;63.95;62666.06;5024210;28;20269;-79
2023/03/05 07:39:13;;;;;;;21.40;11.68;;;;;;;6.71;64.89;62685.72;5024750;28;20514;-79
2023/03/05 07:41:40;;;;;;;17.70;10.65;;;;;;;6.77;64.25;62692.44;5025763;28;20416;-78
2023/03/05 07:44:09;;;;;;;19.30;10.23;;;;;;;6.86;63.05;62701.72;5023756;28;20262;-77
2023/03/05 07:46:37;;;;;;;26.45;11.93;;;;;;;6.82;65.57;62697.06;5025645;28;20441;-77
2023/03/05 07:49:05;;;;;;;17.90;10.65;;;;;;;7.06;64.79;62724.34;5026318;28;20200;-78
2023/03/05 07:51:31;;;;;;;18.30;11.55;;;;;;;6.97;65.36;62712.53;5026636;28;20218;-79
2023/03/05 07:53:59;;;;;;;21.42;11.35;;;;;;;7.13;62.58;62733.59;5022864;28;20209;-79
2023/03/05 07:56:30;;;;;;;23.17;12.25;;;;;;;7.28;65.27;62744.53;5023195;28;20249;-78
2023/03/05 07:58:57;;;;;;;19.60;12.30;;;;;;;7.32;65.23;62743.59;5024826;28;20207;-76
2023/03/05 08:01:26;;;;;;;18.70;11.40;;;;;;;7.27;65.60;62743.50;5022154;28;20507;-78
2023/03/05 08:03:53;;;;;;;19.20;11.45;;;;;;;7.18;66.79;62733.69;5024360;28;20261;-76
2023/03/05 08:06:20;;;;;;;21.13;11.82;;;;;;;6.93;69.27;62710.94;5022867;28;20223;-75
2023/03/05 08:08:47;;;;;;;20.40;13.40;;;;;;;7.11;69.09;62729.50;5023986;28;20476;-77
2023/03/05 08:11:16;;;;;;;28.45;13.90;;;;;;;7.13;69.90;62734.09;5025594;28;20218;-78
2023/03/05 08:13:44;;;;;;;18.73;11.73;;;;;;;6.82;72.58;62702.66;5024581;28;20351;-77
2023/03/05 08:16:13;;;;;;;24.77;13.45;;;;;;;7.14;70.13;62732.09;5023776;28;20253;-77
2023/03/05 08:18:42;;;;;;;22.38;12.02;;;;;;;7.36;68.81;62752.78;5021646;28;20202;-79
2023/03/05 08:21:17;;;;;;;23.90;12.98;;;;;;;7.38;66.04;62756.84;5010614;28;20222;-78
2023/03/05 08:23:44;;;;;;;29.65;15.07;;;;;;;7.17;66.91;62732.66;5017025;28;20842;-78
2023/03/05 08:26:15;;;;;;;21.40;13.80;;;;;;;7.35;65.87;62751.75;5023671;28;20226;-77
2023/03/05 08:28:42;;;;;;;23.38;13.55;;;;;;;7.46;66.87;62765.09;5025138;28;20218;-76
2023/03/05 08:31:10;;;;;;;20.25;12.18;;;;;;;7.08;68.23;62723.88;5023628;28;20214;-77
2023/03/05 08:33:37;;;;;;;24.50;12.30;;;;;;;7.16;65.78;62732.16;5021696;28;20199;-78
2023/03/05 08:36:09;;;;;;;19.52;11.65;;;;;;;6.91;66.43;62709.41;5019802;28;20273;-78
2023/03/05 08:38:36;;;;;;;20.50;12.20;;;;;;;7.01;66.56;62722.25;5021099;28;20191;-76
2023/03/05 08:41:03;;;;;;;18.55;11.98;;;;;;;7.16;66.91;62734.16;5024254;28;20199;-79
2023/03/05 08:43:32;;;;;;;20.10;11.23;;;;;;;7.29;65.35;62745.56;5023805;28;20246;-78
2023/03/05 08:46:01;;;;;;;20.33;11.93;;;;;;;7.54;62.22;62773.38;5026478;28;20254;-78
2023/03/05 08:48:30;;;;;;;21.35;12.95;;;;;;;7.73;64.16;62796.03;5026100;28;20262;-77
2023/03/05 08:50:57;;;;;;;23.85;13.10;;;;;;;7.87;62.61;62805.41;5025168;28;20237;-79
2023/03/05 08:53:25;;;;;;;15.23;11.15;;;;;;;7.88;58.31;62809.00;5023746;28;20510;-77
2023/03/05 08:55:55;;;;;;;22.27;12.13;;;;;;;7.95;57.22;62815.69;5026403;28;20218;-77
2023/03/05 08:58:22;;;;;;;15.15;10.00;;;;;;;8.08;55.29;62829.63;5025621;28;20198;-77
2023/03/05 09:00:49;;;;;;;19.42;10.38;;;;;;;7.82;55.19;62802.78;5024997;28;20237;-79
2023/03/05 09:03:17;;;;;;;20.25;11.65;;;;;;;7.97;55.00;62818.28;5025688;28;20222;-78
2023/03/05 09:05:43;;;;;;;14.95;10.95;;;;;;;7.87;54.75;62809.97;5027465;28;20234;-77
2023/03/05 09:08:10;;;;;;;16.25;10.73;;;;;;;7.99;53.78;62817.28;5025409;28;20222;-76
2023/03/05 09:10:40;;;;;;;23.08;11.73;;;;;;;8.01;54.18;62814.28;5025871;28;20266;-78
2023/03/05 09:13:07;;;;;;;17.83;11.57;;;;;;;7.99;52.63;62819.81;5027187;28;20225;-77
2023/03/05 09:15:34;;;;;;;22.40;12.52;;;;;;;8.18;52.66;62834.38;5027884;28;20261;-78
2023/03/05 09:18:01;;;;;;;17.40;11.63;;;;;;;8.14;52.36;62832.78;5025626;28;20222;-77
2023/03/05 09:20:28;;;;;;;21.23;12.55;;;;;;;8.25;52.89;62843.66;5023397;28;20219;-78
2023/03/05 09:22:55;;;;;;;15.65;9.65;;;;;;;8.11;52.63;62827.66;5007953;28;20239;-78
2023/03/05 09:25:22;;;;;;;18.45;13.00;;;;;;;8.06;53.44;62822.50;5022028;28;20211;-77
2023/03/05 09:27:51;;;;;;;20.13;11.32;;;;;;;8.14;53.13;62832.78;5026359;28;20223;-77
2023/03/05 09:30:18;;;;;;;22.42;13.48;;;;;;;8.26;53.27;62847.72;5024843;28;20210;-78
2023/03/05 09:32:45;;;;;;;22.70;12.68;;;;;;;8.24;53.20;62843.13;5026662;28;20222;-77
2023/03/05 09:35:12;;;;;;;20.45;13.23;;;;;;;8.26;53.67;62844.69;5027065;28;20257;-76
2023/03/05 09:37:40;;;;;;;20.38;12.13;;;;;;;8.40;53.98;62862.19;5022399;28;20580;-77
2023/03/05 09:40:12;;;;;;;18.55;11.82;;;;;;;8.43;53.87;62867.81;5026517;28;20229;-77
2023/03/05 09:43:00;;;;;;;24.92;12.57;;;;;;;8.53;54.52;62878.16;5025485;28;20257;-77
2023/03/05 09:45:30;;;;;;;21.17;13.77;;;;;;;8.72;55.01;62894.72;5025432;28;20195;-78
2023/03/05 09:48:06;;;;;;;18.25;12.70;;;;;;;8.95;53.28;62921.56;5024323;28;20226;-77
2023/03/05 09:50:40;;;;;;;19.80;12.35;;;;;;;8.86;52.28;62909.19;5025532;28;20198;-77
2023/03/05 09:53:22;;;;;;;20.58;12.05;;;;;;;8.67;51.85;62892.63;5025401;28;20285;-77
2023/03/05 09:55:51;;;;;;;22.48;11.38;;;;;;;8.50;52.74;62869.97;5019802;28;20282;-78
2023/03/05 09:58:25;;;;;;;20.58;12.18;;;;;;;8.45;52.42;62864.31;5025039;28;20206;-76
2023/03/05 10:00:57;;;;;;;20.52;12.02;;;;;;;8.43;53.13;62862.22;5025287;28;20325;-77
2023/03/05 10:03:27;;;;;;;18.10;10.60;;;;;;;8.24;54.11;62845.16;5025465;28;20290;-79
2023/03/05 10:06:04;;;;;;;24.00;12.13;;;;;;;8.11;54.44;62834.75;5019283;28;20199;-75
2023/03/05 10:08:43;;;;;;;25.23;12.68;;;;;;;8.13;54.25;62831.75;5025185;28;20241;-76
2023/03/05 10:11:25;;;;;;;23.45;12.93;;;;;;;8.21;55.66;62843.06;5024887;28;20237;-77
2023/03/05 10:13:54;;;;;;;17.73;11.25;;;;;;;8.10;54.75;62833.72;5019808;28;20206;-78
2023/03/05 10:17:01;;;;;;;24.45;13.63;;;;;;;8.26;54.89;62847.22;5021432;28;20223;-76
2023/03/05 10:20:03;;;;;;;24.50;13.07;;;;;;;8.30;54.38;62856.94;5011376;28;20198;-78
2023/03/05 10:22:33;;;;;;;20.05;12.80;;;;;;;8.35;55.61;62854.50;5001443;28;20556;-77
2023/03/05 10:25:20;;;;;;;18.90;11.25;;;;;;;8.42;53.89;62864.25;5021292;28;20195;-77
2023/03/05 10:27:49;;;;;;;20.48;12.82;;;;;;;8.43;53.85;62862.22;5026789;28;20397;-77
2023/03/05 10:30:32;;;;;;;16.15;10.20;;;;;;;8.54;51.66;62878.69;5024227;28;20198;-78
2023/03/05 10:33:12;;;;;;;18.50;12.20;;;;;;;8.43;52.54;62865.28;5021893;28;20269;-77
2023/03/05 10:36:14;;;;;;;22.85;12.80;;;;;;;8.50;52.60;62872.00;5021334;28;20194;-78
2023/03/05 10:39:15;;;;;;;18.77;11.82;;;;;;;8.40;52.24;62861.69;5016721;28;20201;-77
2023/03/05 10:41:53;;;;;;;16.45;10.85;;;;;;;7.97;51.91;62815.72;5018087;28;20264;-75
2023/03/05 10:44:27;;;;;;;16.83;11.15;;;;;;;8.45;52.21;62869.38;5023435;28;20214;-76
2023/03/05 10:46:58;;;;;;;20.73;10.57;;;;;;;8.39;52.00;62866.22;5024388;28;20229;-76
2023/03/05 10:49:30;;;;;;;18.70;11.43;;;;;;;8.56;51.61;62878.72;5019243;28;20384;-76
2023/03/05 10:52:05;;;;;;;13.07;10.32;;;;;;;8.66;52.14;62883.97;5023571;28;20241;-76
2023/03/05 10:54:34;;;;;;;14.80;10.27;;;;;;;8.83;50.73;62906.09;5023847;28;20397;-76
2023/03/05 10:57:13;;;;;;;12.65;9.07;;;;;;;8.76;49.97;62896.31;5024328;28;20249;-77
2023/03/05 10:59:47;;;;;;;13.15;8.70;;;;;;;8.89;50.30;62910.28;5021554;28;20202;-76
2023/03/05 11:02:15;;;;;;;12.88;9.07;;;;;;;8.99;49.97;62925.19;5025924;28;20234;-77
2023/03/05 11:04:42;;;;;;;14.13;9.52;;;;;;;9.12;49.71;62936.06;5012249;28;20226;-76
2023/03/05 11:07:36;;;;;;;15.60;9.88;;;;;;;8.62;52.16;62884.91;5020861;28;20222;-76
2023/03/05 11:10:15;;;;;;;17.75;11.02;;;;;;;8.78;51.82;62900.94;5024430;28;20237;-77
2023/03/05 11:12:43;;;;;;;14.85;10.68;;;;;;;8.79;51.60;62902.47;5009152;28;20250;-77
2023/03/05 11:15:26;;;;;;;15.20;10.40;;;;;;;8.98;52.01;62922.13;5008880;28;20221;-78
2023/03/05 11:18:23;;;;;;;14.88;10.05;;;;;;;8.93;51.18;62916.44;5024245;28;20261;-78
2023/03/05 11:20:51;;;;;;;16.20;11.07;;;;;;;9.21;51.63;62947.91;4989259;28;20202;-77
2023/03/05 11:23:22;;;;;;;15.65;9.73;;;;;;;9.11;51.01;62935.03;5025371;28;20230;-78
2023/03/05 11:26:01;;;;;;;15.70;10.60;;;;;;;9.18;50.00;62944.81;5020733;28;20198;-77
2023/03/05 11:28:31;;;;;;;16.55;10.80;;;;;;;9.04;50.57;62925.28;5005057;28;20226;-77
2023/03/05 11:31:01;;;;;;;21.35;10.50;;;;;;;9.14;50.61;62943.75;5023161;28;20226;-77